sensor_id;sensor_type;location;lat;lon;timestamp;P1;durP1;ratioP1;P2;durP2;ratioP2
49177;SDS011;35016;55.674;37.468;2022-11-20T00:00:23;9.55;;;4.35;;
49177;SDS011;35016;55.674;37.468;2022-11-20T00:02:50;9.45;;;4.00;;
49177;SDS011;35016;55.674;37.468;2022-11-20T00:05:17;10.57;;;4.65;;
49177;SDS011;35016;55.674;37.468;2022-11-20T00:07:45;8.88;;;4.07;;
49177;SDS011;35016;55.674;37.468;2022-11-20T00:10:15;9.23;;;4.25;;
49177;SDS011;35016;55.674;37.468;2022-11-20T00:12:45;11.02;;;4.97;;
49177;SDS011;35016;55.674;37.468;2022-11-20T00:15:12;9.63;;;4.13;;
49177;SDS011;35016;55.674;37.468;2022-11-20T00:17:39;10.60;;;3.70;;
49177;SDS011;35016;55.674;37.468;2022-11-20T00:20:06;10.38;;;4.50;;
49177;SDS011;35016;55.674;37.468;2022-11-20T00:22:34;10.90;;;5.07;;
49177;SDS011;35016;55.674;37.468;2022-11-20T00:25:01;11.23;;;4.57;;
49177;SDS011;35016;55.674;37.468;2022-11-20T00:27:28;11.85;;;4.90;;
49177;SDS011;35016;55.674;37.468;2022-11-20T00:29:55;12.27;;;4.85;;
49177;SDS011;35016;55.674;37.468;2022-11-20T00:32:22;11.50;;;4.53;;
49177;SDS011;35016;55.674;37.468;2022-11-20T00:34:49;9.35;;;4.22;;
49177;SDS011;35016;55.674;37.468;2022-11-20T00:40:40;9.70;;;4.18;;
49177;SDS011;35016;55.674;37.468;2022-11-20T00:43:16;11.77;;;4.95;;
49177;SDS011;35016;55.674;37.468;2022-11-20T00:45:43;9.90;;;4.13;;
49177;SDS011;35016;55.674;37.468;2022-11-20T00:48:10;11.30;;;5.22;;
49177;SDS011;35016;55.674;37.468;2022-11-20T00:50:37;10.13;;;5.10;;
49177;SDS011;35016;55.674;37.468;2022-11-20T00:53:05;10.40;;;5.05;;
49177;SDS011;35016;55.674;37.468;2022-11-20T00:55:32;11.90;;;5.75;;
49177;SDS011;35016;55.674;37.468;2022-11-20T00:58:00;12.88;;;6.35;;
49177;SDS011;35016;55.674;37.468;2022-11-20T01:00:30;12.60;;;6.03;;
49177;SDS011;35016;55.674;37.468;2022-11-20T01:02:57;12.40;;;6.00;;
49177;SDS011;35016;55.674;37.468;2022-11-20T01:05:24;10.88;;;6.32;;
49177;SDS011;35016;55.674;37.468;2022-11-20T01:07:51;11.00;;;5.57;;
49177;SDS011;35016;55.674;37.468;2022-11-20T01:10:18;11.25;;;5.97;;
49177;SDS011;35016;55.674;37.468;2022-11-20T01:12:45;11.82;;;6.00;;
49177;SDS011;35016;55.674;37.468;2022-11-20T01:15:33;11.73;;;5.93;;
49177;SDS011;35016;55.674;37.468;2022-11-20T01:18:00;11.82;;;6.18;;
49177;SDS011;35016;55.674;37.468;2022-11-20T01:20:27;13.20;;;6.40;;
49177;SDS011;35016;55.674;37.468;2022-11-20T01:22:54;10.55;;;5.22;;
49177;SDS011;35016;55.674;37.468;2022-11-20T01:25:21;11.82;;;5.38;;
49177;SDS011;35016;55.674;37.468;2022-11-20T01:27:48;10.80;;;5.32;;
49177;SDS011;35016;55.674;37.468;2022-11-20T01:30:15;12.18;;;5.97;;
49177;SDS011;35016;55.674;37.468;2022-11-20T01:32:42;14.63;;;6.45;;
49177;SDS011;35016;55.674;37.468;2022-11-20T01:35:09;9.77;;;4.75;;
49177;SDS011;35016;55.674;37.468;2022-11-20T01:37:36;11.55;;;5.53;;
49177;SDS011;35016;55.674;37.468;2022-11-20T01:40:03;9.65;;;4.40;;
49177;SDS011;35016;55.674;37.468;2022-11-20T01:42:31;10.52;;;5.13;;
49177;SDS011;35016;55.674;37.468;2022-11-20T01:48:11;9.35;;;4.47;;
49177;SDS011;35016;55.674;37.468;2022-11-20T01:50:38;10.82;;;6.20;;
49177;SDS011;35016;55.674;37.468;2022-11-20T01:53:08;9.55;;;4.25;;
49177;SDS011;35016;55.674;37.468;2022-11-20T01:55:43;10.65;;;5.18;;
49177;SDS011;35016;55.674;37.468;2022-11-20T01:58:16;9.27;;;5.45;;
49177;SDS011;35016;55.674;37.468;2022-11-20T02:00:53;11.13;;;5.80;;
49177;SDS011;35016;55.674;37.468;2022-11-20T02:03:20;11.10;;;5.43;;
49177;SDS011;35016;55.674;37.468;2022-11-20T02:08:17;10.93;;;5.35;;
49177;SDS011;35016;55.674;37.468;2022-11-20T02:10:46;12.93;;;5.82;;
49177;SDS011;35016;55.674;37.468;2022-11-20T02:13:13;10.50;;;4.72;;
49177;SDS011;35016;55.674;37.468;2022-11-20T02:15:59;11.80;;;5.50;;
49177;SDS011;35016;55.674;37.468;2022-11-20T02:18:27;11.00;;;5.70;;
49177;SDS011;35016;55.674;37.468;2022-11-20T02:21:06;11.68;;;5.45;;
49177;SDS011;35016;55.674;37.468;2022-11-20T02:26:50;10.05;;;4.57;;
49177;SDS011;35016;55.674;37.468;2022-11-20T02:29:24;10.85;;;5.53;;
49177;SDS011;35016;55.674;37.468;2022-11-20T02:31:54;11.00;;;4.82;;
49177;SDS011;35016;55.674;37.468;2022-11-20T02:34:23;11.52;;;5.55;;
49177;SDS011;35016;55.674;37.468;2022-11-20T02:36:50;12.63;;;5.18;;
49177;SDS011;35016;55.674;37.468;2022-11-20T02:39:19;11.52;;;4.43;;
49177;SDS011;35016;55.674;37.468;2022-11-20T02:41:47;10.18;;;5.63;;
49177;SDS011;35016;55.674;37.468;2022-11-20T02:44:14;11.35;;;5.53;;
49177;SDS011;35016;55.674;37.468;2022-11-20T02:46:41;11.35;;;4.40;;
49177;SDS011;35016;55.674;37.468;2022-11-20T02:49:08;9.77;;;4.60;;
49177;SDS011;35016;55.674;37.468;2022-11-20T02:51:35;10.43;;;4.80;;
49177;SDS011;35016;55.674;37.468;2022-11-20T02:54:02;12.13;;;5.15;;
49177;SDS011;35016;55.674;37.468;2022-11-20T02:56:30;10.82;;;4.43;;
49177;SDS011;35016;55.674;37.468;2022-11-20T02:58:57;8.15;;;4.03;;
49177;SDS011;35016;55.674;37.468;2022-11-20T03:01:24;11.50;;;4.82;;
49177;SDS011;35016;55.674;37.468;2022-11-20T03:03:51;10.45;;;4.47;;
49177;SDS011;35016;55.674;37.468;2022-11-20T03:06:20;11.60;;;5.05;;
49177;SDS011;35016;55.674;37.468;2022-11-20T03:08:48;11.07;;;5.00;;
49177;SDS011;35016;55.674;37.468;2022-11-20T03:11:15;12.75;;;4.72;;
49177;SDS011;35016;55.674;37.468;2022-11-20T03:13:43;9.07;;;4.47;;
49177;SDS011;35016;55.674;37.468;2022-11-20T03:16:11;12.32;;;5.30;;
49177;SDS011;35016;55.674;37.468;2022-11-20T03:18:44;12.25;;;5.55;;
49177;SDS011;35016;55.674;37.468;2022-11-20T03:21:12;11.68;;;5.18;;
49177;SDS011;35016;55.674;37.468;2022-11-20T03:23:40;10.85;;;4.63;;
49177;SDS011;35016;55.674;37.468;2022-11-20T03:26:12;11.48;;;5.07;;
49177;SDS011;35016;55.674;37.468;2022-11-20T03:28:47;10.70;;;5.10;;
49177;SDS011;35016;55.674;37.468;2022-11-20T03:31:23;10.23;;;4.80;;
49177;SDS011;35016;55.674;37.468;2022-11-20T03:33:51;10.57;;;4.45;;
49177;SDS011;35016;55.674;37.468;2022-11-20T03:36:19;10.07;;;5.05;;
49177;SDS011;35016;55.674;37.468;2022-11-20T03:38:47;10.50;;;4.47;;
49177;SDS011;35016;55.674;37.468;2022-11-20T03:41:17;10.02;;;4.28;;
49177;SDS011;35016;55.674;37.468;2022-11-20T03:43:52;11.90;;;5.05;;
49177;SDS011;35016;55.674;37.468;2022-11-20T03:46:21;10.45;;;4.95;;
49177;SDS011;35016;55.674;37.468;2022-11-20T03:48:48;10.23;;;3.97;;
49177;SDS011;35016;55.674;37.468;2022-11-20T03:51:21;10.18;;;4.15;;
49177;SDS011;35016;55.674;37.468;2022-11-20T03:53:51;9.10;;;4.28;;
49177;SDS011;35016;55.674;37.468;2022-11-20T03:56:20;11.75;;;4.50;;
49177;SDS011;35016;55.674;37.468;2022-11-20T03:58:50;10.20;;;4.80;;
49177;SDS011;35016;55.674;37.468;2022-11-20T04:01:18;10.18;;;4.45;;
49177;SDS011;35016;55.674;37.468;2022-11-20T04:03:47;10.65;;;4.70;;
49177;SDS011;35016;55.674;37.468;2022-11-20T04:06:19;11.52;;;4.28;;
49177;SDS011;35016;55.674;37.468;2022-11-20T04:08:57;10.40;;;4.32;;
49177;SDS011;35016;55.674;37.468;2022-11-20T04:11:25;11.15;;;4.68;;
49177;SDS011;35016;55.674;37.468;2022-11-20T04:13:55;11.50;;;5.82;;
49177;SDS011;35016;55.674;37.468;2022-11-20T04:16:24;11.82;;;4.93;;
49177;SDS011;35016;55.674;37.468;2022-11-20T04:18:53;12.77;;;4.80;;
49177;SDS011;35016;55.674;37.468;2022-11-20T04:21:22;12.20;;;4.70;;
49177;SDS011;35016;55.674;37.468;2022-11-20T04:23:50;8.82;;;4.10;;
49177;SDS011;35016;55.674;37.468;2022-11-20T04:26:19;9.32;;;3.80;;
49177;SDS011;35016;55.674;37.468;2022-11-20T04:28:48;10.20;;;4.22;;
49177;SDS011;35016;55.674;37.468;2022-11-20T04:31:17;10.30;;;4.75;;
49177;SDS011;35016;55.674;37.468;2022-11-20T04:33:46;10.30;;;5.05;;
49177;SDS011;35016;55.674;37.468;2022-11-20T04:36:21;10.40;;;5.65;;
49177;SDS011;35016;55.674;37.468;2022-11-20T04:38:50;10.77;;;4.47;;
49177;SDS011;35016;55.674;37.468;2022-11-20T04:41:28;7.70;;;3.47;;
49177;SDS011;35016;55.674;37.468;2022-11-20T04:43:57;14.00;;;5.05;;
49177;SDS011;35016;55.674;37.468;2022-11-20T04:46:29;10.20;;;4.47;;
49177;SDS011;35016;55.674;37.468;2022-11-20T04:48:58;10.35;;;4.22;;
49177;SDS011;35016;55.674;37.468;2022-11-20T04:51:26;11.80;;;5.32;;
49177;SDS011;35016;55.674;37.468;2022-11-20T04:53:53;13.13;;;5.28;;
49177;SDS011;35016;55.674;37.468;2022-11-20T04:56:20;11.50;;;5.25;;
49177;SDS011;35016;55.674;37.468;2022-11-20T04:58:47;12.52;;;4.70;;
49177;SDS011;35016;55.674;37.468;2022-11-20T05:01:16;10.48;;;5.38;;
49177;SDS011;35016;55.674;37.468;2022-11-20T05:03:45;14.05;;;5.53;;
49177;SDS011;35016;55.674;37.468;2022-11-20T05:06:13;12.27;;;5.43;;
49177;SDS011;35016;55.674;37.468;2022-11-20T05:08:42;10.57;;;5.25;;
49177;SDS011;35016;55.674;37.468;2022-11-20T05:11:10;11.65;;;5.03;;
49177;SDS011;35016;55.674;37.468;2022-11-20T05:13:39;9.65;;;4.68;;
49177;SDS011;35016;55.674;37.468;2022-11-20T05:16:14;10.60;;;5.03;;
49177;SDS011;35016;55.674;37.468;2022-11-20T05:18:42;9.90;;;4.82;;
49177;SDS011;35016;55.674;37.468;2022-11-20T05:21:10;9.68;;;5.05;;
49177;SDS011;35016;55.674;37.468;2022-11-20T05:23:38;14.35;;;5.82;;
49177;SDS011;35016;55.674;37.468;2022-11-20T05:26:06;10.13;;;5.22;;
49177;SDS011;35016;55.674;37.468;2022-11-20T05:28:34;11.38;;;4.93;;
49177;SDS011;35016;55.674;37.468;2022-11-20T05:31:05;10.68;;;4.97;;
49177;SDS011;35016;55.674;37.468;2022-11-20T05:33:34;10.88;;;5.13;;
49177;SDS011;35016;55.674;37.468;2022-11-20T05:36:02;12.25;;;5.50;;
49177;SDS011;35016;55.674;37.468;2022-11-20T05:38:30;12.15;;;5.00;;
49177;SDS011;35016;55.674;37.468;2022-11-20T05:41:04;11.40;;;5.57;;
49177;SDS011;35016;55.674;37.468;2022-11-20T05:43:32;11.27;;;5.88;;
49177;SDS011;35016;55.674;37.468;2022-11-20T05:46:04;10.88;;;5.40;;
49177;SDS011;35016;55.674;37.468;2022-11-20T05:48:33;11.95;;;5.80;;
49177;SDS011;35016;55.674;37.468;2022-11-20T05:51:06;14.48;;;5.97;;
49177;SDS011;35016;55.674;37.468;2022-11-20T05:53:39;11.50;;;5.75;;
49177;SDS011;35016;55.674;37.468;2022-11-20T05:56:18;11.70;;;5.63;;
49177;SDS011;35016;55.674;37.468;2022-11-20T05:58:48;11.93;;;6.10;;
49177;SDS011;35016;55.674;37.468;2022-11-20T06:03:44;12.00;;;5.30;;
49177;SDS011;35016;55.674;37.468;2022-11-20T06:06:14;11.23;;;5.85;;
49177;SDS011;35016;55.674;37.468;2022-11-20T06:08:42;10.82;;;5.18;;
49177;SDS011;35016;55.674;37.468;2022-11-20T06:11:11;11.13;;;5.03;;
49177;SDS011;35016;55.674;37.468;2022-11-20T06:13:43;10.80;;;5.53;;
49177;SDS011;35016;55.674;37.468;2022-11-20T06:16:14;9.32;;;4.50;;
49177;SDS011;35016;55.674;37.468;2022-11-20T06:18:44;11.60;;;5.50;;
49177;SDS011;35016;55.674;37.468;2022-11-20T06:21:13;11.73;;;5.32;;
49177;SDS011;35016;55.674;37.468;2022-11-20T06:23:45;13.40;;;6.15;;
49177;SDS011;35016;55.674;37.468;2022-11-20T06:26:13;12.55;;;6.28;;
49177;SDS011;35016;55.674;37.468;2022-11-20T06:28:43;11.80;;;5.82;;
49177;SDS011;35016;55.674;37.468;2022-11-20T06:31:15;13.32;;;5.47;;
49177;SDS011;35016;55.674;37.468;2022-11-20T06:33:45;15.00;;;6.20;;
49177;SDS011;35016;55.674;37.468;2022-11-20T06:36:13;12.13;;;5.18;;
49177;SDS011;35016;55.674;37.468;2022-11-20T06:38:43;10.15;;;5.82;;
49177;SDS011;35016;55.674;37.468;2022-11-20T06:41:18;12.43;;;6.55;;
49177;SDS011;35016;55.674;37.468;2022-11-20T06:43:47;12.70;;;6.03;;
49177;SDS011;35016;55.674;37.468;2022-11-20T06:46:15;13.50;;;5.97;;
49177;SDS011;35016;55.674;37.468;2022-11-20T06:48:48;12.80;;;5.85;;
49177;SDS011;35016;55.674;37.468;2022-11-20T06:51:16;12.65;;;5.88;;
49177;SDS011;35016;55.674;37.468;2022-11-20T06:53:44;12.38;;;6.68;;
49177;SDS011;35016;55.674;37.468;2022-11-20T06:56:12;11.98;;;5.72;;
49177;SDS011;35016;55.674;37.468;2022-11-20T06:58:39;11.75;;;5.75;;
49177;SDS011;35016;55.674;37.468;2022-11-20T07:01:08;13.10;;;6.35;;
49177;SDS011;35016;55.674;37.468;2022-11-20T07:03:38;11.32;;;5.90;;
49177;SDS011;35016;55.674;37.468;2022-11-20T07:06:05;13.48;;;6.70;;
49177;SDS011;35016;55.674;37.468;2022-11-20T07:08:33;12.52;;;5.93;;
49177;SDS011;35016;55.674;37.468;2022-11-20T07:11:02;12.20;;;6.22;;
49177;SDS011;35016;55.674;37.468;2022-11-20T07:13:31;11.95;;;6.28;;
49177;SDS011;35016;55.674;37.468;2022-11-20T07:15:59;12.88;;;6.35;;
49177;SDS011;35016;55.674;37.468;2022-11-20T07:18:32;14.47;;;6.57;;
49177;SDS011;35016;55.674;37.468;2022-11-20T07:21:00;14.48;;;7.53;;
49177;SDS011;35016;55.674;37.468;2022-11-20T07:23:28;12.38;;;6.43;;
49177;SDS011;35016;55.674;37.468;2022-11-20T07:25:55;15.75;;;7.30;;
49177;SDS011;35016;55.674;37.468;2022-11-20T07:28:22;11.95;;;6.32;;
49177;SDS011;35016;55.674;37.468;2022-11-20T07:30:53;13.15;;;6.00;;
49177;SDS011;35016;55.674;37.468;2022-11-20T07:33:21;13.18;;;7.13;;
49177;SDS011;35016;55.674;37.468;2022-11-20T07:35:48;13.57;;;6.40;;
49177;SDS011;35016;55.674;37.468;2022-11-20T07:38:17;14.80;;;7.10;;
49177;SDS011;35016;55.674;37.468;2022-11-20T07:40:45;13.93;;;6.55;;
49177;SDS011;35016;55.674;37.468;2022-11-20T07:43:12;14.10;;;6.30;;
49177;SDS011;35016;55.674;37.468;2022-11-20T07:45:42;14.15;;;6.75;;
49177;SDS011;35016;55.674;37.468;2022-11-20T07:48:09;15.07;;;7.35;;
49177;SDS011;35016;55.674;37.468;2022-11-20T07:50:36;15.50;;;7.55;;
49177;SDS011;35016;55.674;37.468;2022-11-20T07:53:04;14.27;;;6.57;;
49177;SDS011;35016;55.674;37.468;2022-11-20T07:55:31;15.70;;;7.45;;
49177;SDS011;35016;55.674;37.468;2022-11-20T07:57:59;14.40;;;6.57;;
49177;SDS011;35016;55.674;37.468;2022-11-20T08:00:26;14.30;;;6.68;;
49177;SDS011;35016;55.674;37.468;2022-11-20T08:02:54;15.82;;;6.68;;
49177;SDS011;35016;55.674;37.468;2022-11-20T08:05:21;14.20;;;7.35;;
49177;SDS011;35016;55.674;37.468;2022-11-20T08:07:48;14.27;;;7.53;;
49177;SDS011;35016;55.674;37.468;2022-11-20T08:10:15;13.68;;;6.43;;
49177;SDS011;35016;55.674;37.468;2022-11-20T08:12:44;14.10;;;6.68;;
49177;SDS011;35016;55.674;37.468;2022-11-20T08:15:35;13.02;;;5.88;;
49177;SDS011;35016;55.674;37.468;2022-11-20T08:18:04;15.50;;;7.47;;
49177;SDS011;35016;55.674;37.468;2022-11-20T08:20:52;12.30;;;5.97;;
49177;SDS011;35016;55.674;37.468;2022-11-20T08:23:19;12.60;;;7.63;;
49177;SDS011;35016;55.674;37.468;2022-11-20T08:25:48;12.68;;;6.97;;
49177;SDS011;35016;55.674;37.468;2022-11-20T08:28:17;13.80;;;6.20;;
49177;SDS011;35016;55.674;37.468;2022-11-20T08:30:48;13.90;;;7.88;;
49177;SDS011;35016;55.674;37.468;2022-11-20T08:33:17;16.02;;;7.25;;
49177;SDS011;35016;55.674;37.468;2022-11-20T08:35:48;13.73;;;6.90;;
49177;SDS011;35016;55.674;37.468;2022-11-20T08:38:15;14.80;;;7.35;;
49177;SDS011;35016;55.674;37.468;2022-11-20T08:40:42;15.52;;;7.00;;
49177;SDS011;35016;55.674;37.468;2022-11-20T08:43:29;15.40;;;7.40;;
49177;SDS011;35016;55.674;37.468;2022-11-20T08:45:57;13.93;;;7.53;;
49177;SDS011;35016;55.674;37.468;2022-11-20T08:48:24;14.70;;;8.27;;
49177;SDS011;35016;55.674;37.468;2022-11-20T08:50:51;15.98;;;7.97;;
49177;SDS011;35016;55.674;37.468;2022-11-20T08:53:18;15.68;;;7.60;;
49177;SDS011;35016;55.674;37.468;2022-11-20T08:55:45;15.38;;;7.88;;
49177;SDS011;35016;55.674;37.468;2022-11-20T08:58:12;19.48;;;9.40;;
49177;SDS011;35016;55.674;37.468;2022-11-20T09:00:39;15.18;;;7.85;;
49177;SDS011;35016;55.674;37.468;2022-11-20T09:03:06;17.27;;;7.88;;
49177;SDS011;35016;55.674;37.468;2022-11-20T09:05:33;13.95;;;8.15;;
49177;SDS011;35016;55.674;37.468;2022-11-20T09:08:00;21.45;;;8.85;;
49177;SDS011;35016;55.674;37.468;2022-11-20T09:10:27;17.17;;;7.78;;
49177;SDS011;35016;55.674;37.468;2022-11-20T09:12:54;20.70;;;9.48;;
49177;SDS011;35016;55.674;37.468;2022-11-20T09:15:22;17.90;;;9.43;;
49177;SDS011;35016;55.674;37.468;2022-11-20T09:17:54;17.65;;;9.80;;
49177;SDS011;35016;55.674;37.468;2022-11-20T09:20:22;18.73;;;10.23;;
49177;SDS011;35016;55.674;37.468;2022-11-20T09:22:49;19.50;;;9.18;;
49177;SDS011;35016;55.674;37.468;2022-11-20T09:25:16;17.58;;;9.85;;
49177;SDS011;35016;55.674;37.468;2022-11-20T09:27:44;20.27;;;10.63;;
49177;SDS011;35016;55.674;37.468;2022-11-20T09:30:13;18.35;;;9.45;;
49177;SDS011;35016;55.674;37.468;2022-11-20T09:32:41;19.88;;;9.73;;
49177;SDS011;35016;55.674;37.468;2022-11-20T09:35:09;13.77;;;8.15;;
49177;SDS011;35016;55.674;37.468;2022-11-20T09:37:37;17.85;;;9.50;;
49177;SDS011;35016;55.674;37.468;2022-11-20T09:40:04;16.70;;;8.93;;
49177;SDS011;35016;55.674;37.468;2022-11-20T09:42:55;15.75;;;7.88;;
49177;SDS011;35016;55.674;37.468;2022-11-20T09:56:36;16.58;;;8.18;;
49177;SDS011;35016;55.674;37.468;2022-11-20T09:59:06;13.95;;;7.80;;
49177;SDS011;35016;55.674;37.468;2022-11-20T10:01:41;15.82;;;7.72;;
49177;SDS011;35016;55.674;37.468;2022-11-20T10:04:14;14.40;;;8.57;;
49177;SDS011;35016;55.674;37.468;2022-11-20T10:09:40;14.88;;;7.35;;
49177;SDS011;35016;55.674;37.468;2022-11-20T10:12:22;16.30;;;7.53;;
49177;SDS011;35016;55.674;37.468;2022-11-20T10:34:04;15.00;;;6.35;;
49177;SDS011;35016;55.674;37.468;2022-11-20T10:36:50;14.80;;;8.18;;
49177;SDS011;35016;55.674;37.468;2022-11-20T10:39:25;15.23;;;6.53;;
49177;SDS011;35016;55.674;37.468;2022-11-20T10:42:00;19.83;;;8.60;;
49177;SDS011;35016;55.674;37.468;2022-11-20T10:44:28;14.45;;;8.43;;
49177;SDS011;35016;55.674;37.468;2022-11-20T10:47:22;18.17;;;8.80;;
49177;SDS011;35016;55.674;37.468;2022-11-20T10:49:50;18.48;;;7.88;;
49177;SDS011;35016;55.674;37.468;2022-11-20T10:52:32;18.05;;;9.38;;
49177;SDS011;35016;55.674;37.468;2022-11-20T10:58:22;13.93;;;7.68;;
49177;SDS011;35016;55.674;37.468;2022-11-20T11:01:02;14.20;;;7.63;;
49177;SDS011;35016;55.674;37.468;2022-11-20T11:03:53;14.30;;;7.75;;
49177;SDS011;35016;55.674;37.468;2022-11-20T11:09:16;13.52;;;7.18;;
49177;SDS011;35016;55.674;37.468;2022-11-20T11:11:48;13.93;;;7.07;;
49177;SDS011;35016;55.674;37.468;2022-11-20T11:14:15;16.35;;;7.93;;
49177;SDS011;35016;55.674;37.468;2022-11-20T11:16:52;13.20;;;6.32;;
49177;SDS011;35016;55.674;37.468;2022-11-20T11:19:21;13.73;;;6.70;;
49177;SDS011;35016;55.674;37.468;2022-11-20T11:21:57;12.80;;;6.28;;
49177;SDS011;35016;55.674;37.468;2022-11-20T11:24:26;15.90;;;7.45;;
49177;SDS011;35016;55.674;37.468;2022-11-20T11:27:11;15.15;;;7.68;;
49177;SDS011;35016;55.674;37.468;2022-11-20T11:29:43;13.07;;;6.73;;
49177;SDS011;35016;55.674;37.468;2022-11-20T11:32:12;12.15;;;6.25;;
49177;SDS011;35016;55.674;37.468;2022-11-20T11:34:40;11.73;;;7.18;;
49177;SDS011;35016;55.674;37.468;2022-11-20T11:37:13;15.07;;;7.93;;
49177;SDS011;35016;55.674;37.468;2022-11-20T11:39:44;12.15;;;5.47;;
49177;SDS011;35016;55.674;37.468;2022-11-20T11:42:29;12.45;;;6.07;;
49177;SDS011;35016;55.674;37.468;2022-11-20T11:44:58;11.27;;;6.50;;
49177;SDS011;35016;55.674;37.468;2022-11-20T11:47:36;10.80;;;5.07;;
49177;SDS011;35016;55.674;37.468;2022-11-20T11:55:58;11.02;;;6.07;;
49177;SDS011;35016;55.674;37.468;2022-11-20T11:58:42;14.80;;;6.13;;
49177;SDS011;35016;55.674;37.468;2022-11-20T12:03:59;11.82;;;6.70;;
49177;SDS011;35016;55.674;37.468;2022-11-20T12:06:48;12.93;;;6.00;;
49177;SDS011;35016;55.674;37.468;2022-11-20T12:09:48;12.27;;;6.25;;
49177;SDS011;35016;55.674;37.468;2022-11-20T12:12:21;12.30;;;6.70;;
49177;SDS011;35016;55.674;37.468;2022-11-20T12:14:54;13.60;;;5.72;;
49177;SDS011;35016;55.674;37.468;2022-11-20T12:17:23;12.60;;;6.10;;
49177;SDS011;35016;55.674;37.468;2022-11-20T12:19:51;12.88;;;5.72;;
49177;SDS011;35016;55.674;37.468;2022-11-20T12:22:36;10.55;;;5.15;;
49177;SDS011;35016;55.674;37.468;2022-11-20T12:25:18;12.75;;;6.47;;
49177;SDS011;35016;55.674;37.468;2022-11-20T12:30:48;12.18;;;5.80;;
49177;SDS011;35016;55.674;37.468;2022-11-20T12:51:44;13.38;;;6.30;;
49177;SDS011;35016;55.674;37.468;2022-11-20T12:56:51;12.35;;;6.25;;
49177;SDS011;35016;55.674;37.468;2022-11-20T12:59:33;13.43;;;6.63;;
49177;SDS011;35016;55.674;37.468;2022-11-20T13:02:17;15.00;;;7.05;;
49177;SDS011;35016;55.674;37.468;2022-11-20T13:07:51;11.90;;;5.63;;
49177;SDS011;35016;55.674;37.468;2022-11-20T13:13:05;13.52;;;5.60;;
49177;SDS011;35016;55.674;37.468;2022-11-20T13:15:40;13.52;;;5.93;;
49177;SDS011;35016;55.674;37.468;2022-11-20T13:18:16;13.77;;;6.25;;
49177;SDS011;35016;55.674;37.468;2022-11-20T13:20:44;13.63;;;6.95;;
49177;SDS011;35016;55.674;37.468;2022-11-20T13:23:22;15.65;;;7.45;;
49177;SDS011;35016;55.674;37.468;2022-11-20T13:25:52;10.95;;;5.35;;
49177;SDS011;35016;55.674;37.468;2022-11-20T13:28:33;13.27;;;6.90;;
49177;SDS011;35016;55.674;37.468;2022-11-20T13:31:01;12.65;;;6.05;;
49177;SDS011;35016;55.674;37.468;2022-11-20T13:33:29;12.88;;;6.20;;
49177;SDS011;35016;55.674;37.468;2022-11-20T13:36:03;12.80;;;6.85;;
49177;SDS011;35016;55.674;37.468;2022-11-20T13:41:31;13.63;;;6.20;;
49177;SDS011;35016;55.674;37.468;2022-11-20T13:44:51;13.75;;;7.35;;
49177;SDS011;35016;55.674;37.468;2022-11-20T13:47:18;13.98;;;6.15;;
49177;SDS011;35016;55.674;37.468;2022-11-20T13:49:46;12.32;;;6.07;;
49177;SDS011;35016;55.674;37.468;2022-11-20T13:57:52;12.13;;;6.28;;
49177;SDS011;35016;55.674;37.468;2022-11-20T14:00:32;12.52;;;6.38;;
49177;SDS011;35016;55.674;37.468;2022-11-20T14:05:34;12.25;;;5.28;;
49177;SDS011;35016;55.674;37.468;2022-11-20T14:13:55;13.63;;;7.07;;
49177;SDS011;35016;55.674;37.468;2022-11-20T14:16:26;13.70;;;7.07;;
49177;SDS011;35016;55.674;37.468;2022-11-20T14:18:55;13.48;;;6.15;;
49177;SDS011;35016;55.674;37.468;2022-11-20T14:21:28;15.63;;;6.95;;
49177;SDS011;35016;55.674;37.468;2022-11-20T14:24:05;13.75;;;7.13;;
49177;SDS011;35016;55.674;37.468;2022-11-20T14:26:33;13.50;;;6.65;;
49177;SDS011;35016;55.674;37.468;2022-11-20T14:29:00;12.40;;;6.40;;
49177;SDS011;35016;55.674;37.468;2022-11-20T14:31:28;13.52;;;6.43;;
49177;SDS011;35016;55.674;37.468;2022-11-20T14:33:57;14.63;;;6.82;;
49177;SDS011;35016;55.674;37.468;2022-11-20T14:36:24;13.27;;;7.72;;
49177;SDS011;35016;55.674;37.468;2022-11-20T14:38:52;12.57;;;6.72;;
49177;SDS011;35016;55.674;37.468;2022-11-20T14:41:22;13.60;;;6.47;;
49177;SDS011;35016;55.674;37.468;2022-11-20T14:44:00;12.48;;;6.68;;
49177;SDS011;35016;55.674;37.468;2022-11-20T14:46:52;13.50;;;6.88;;
49177;SDS011;35016;55.674;37.468;2022-11-20T14:49:21;14.85;;;6.97;;
49177;SDS011;35016;55.674;37.468;2022-11-20T14:51:58;14.85;;;6.28;;
49177;SDS011;35016;55.674;37.468;2022-11-20T14:54:30;14.10;;;7.07;;
49177;SDS011;35016;55.674;37.468;2022-11-20T14:56:58;14.13;;;6.55;;
49177;SDS011;35016;55.674;37.468;2022-11-20T14:59:32;11.70;;;6.05;;
49177;SDS011;35016;55.674;37.468;2022-11-20T15:02:11;13.60;;;7.00;;
49177;SDS011;35016;55.674;37.468;2022-11-20T15:04:51;12.85;;;6.82;;
49177;SDS011;35016;55.674;37.468;2022-11-20T15:07:34;14.65;;;8.13;;
49177;SDS011;35016;55.674;37.468;2022-11-20T15:10:04;13.43;;;6.57;;
49177;SDS011;35016;55.674;37.468;2022-11-20T15:12:37;13.75;;;7.70;;
49177;SDS011;35016;55.674;37.468;2022-11-20T15:15:10;15.45;;;8.52;;
49177;SDS011;35016;55.674;37.468;2022-11-20T15:20:10;11.02;;;5.75;;
49177;SDS011;35016;55.674;37.468;2022-11-20T15:22:40;15.10;;;6.53;;
49177;SDS011;35016;55.674;37.468;2022-11-20T15:25:15;13.55;;;7.57;;
49177;SDS011;35016;55.674;37.468;2022-11-20T15:27:44;14.35;;;7.20;;
49177;SDS011;35016;55.674;37.468;2022-11-20T15:30:22;13.05;;;7.22;;
49177;SDS011;35016;55.674;37.468;2022-11-20T15:32:50;14.65;;;7.70;;
49177;SDS011;35016;55.674;37.468;2022-11-20T15:35:17;13.60;;;7.13;;
49177;SDS011;35016;55.674;37.468;2022-11-20T15:37:44;14.35;;;8.02;;
49177;SDS011;35016;55.674;37.468;2022-11-20T15:40:12;13.55;;;7.50;;
49177;SDS011;35016;55.674;37.468;2022-11-20T15:42:39;11.13;;;6.80;;
49177;SDS011;35016;55.674;37.468;2022-11-20T15:45:26;16.33;;;7.20;;
49177;SDS011;35016;55.674;37.468;2022-11-20T15:47:56;13.55;;;7.57;;
49177;SDS011;35016;55.674;37.468;2022-11-20T15:50:23;14.25;;;7.90;;
49177;SDS011;35016;55.674;37.468;2022-11-20T15:52:55;14.55;;;7.45;;
49177;SDS011;35016;55.674;37.468;2022-11-20T15:55:23;14.38;;;7.72;;
49177;SDS011;35016;55.674;37.468;2022-11-20T15:57:50;13.52;;;6.82;;
49177;SDS011;35016;55.674;37.468;2022-11-20T16:00:17;11.57;;;5.88;;
49177;SDS011;35016;55.674;37.468;2022-11-20T16:02:49;13.93;;;7.78;;
49177;SDS011;35016;55.674;37.468;2022-11-20T16:05:17;13.15;;;7.05;;
49177;SDS011;35016;55.674;37.468;2022-11-20T16:07:52;13.75;;;8.00;;
49177;SDS011;35016;55.674;37.468;2022-11-20T16:10:20;14.63;;;7.55;;
49177;SDS011;35016;55.674;37.468;2022-11-20T16:12:47;12.15;;;7.07;;
49177;SDS011;35016;55.674;37.468;2022-11-20T16:15:33;13.85;;;6.47;;
49177;SDS011;35016;55.674;37.468;2022-11-20T16:18:14;14.00;;;6.55;;
49177;SDS011;35016;55.674;37.468;2022-11-20T16:20:44;14.05;;;6.68;;
49177;SDS011;35016;55.674;37.468;2022-11-20T16:23:12;12.98;;;6.28;;
49177;SDS011;35016;55.674;37.468;2022-11-20T16:25:40;12.80;;;6.80;;
49177;SDS011;35016;55.674;37.468;2022-11-20T16:28:10;14.63;;;7.20;;
49177;SDS011;35016;55.674;37.468;2022-11-20T16:30:47;13.82;;;6.63;;
49177;SDS011;35016;55.674;37.468;2022-11-20T16:33:15;12.02;;;7.03;;
49177;SDS011;35016;55.674;37.468;2022-11-20T16:35:43;14.82;;;7.70;;